createdAt,value
2022-09-04T00:01:55.214Z,98612.53
2022-09-04T00:04:07.920Z,98608.44
2022-09-04T00:06:17.842Z,98607.38
2022-09-04T00:08:31.637Z,98616.84
2022-09-04T00:10:38.613Z,98620.72
2022-09-04T00:12:49.001Z,98622.97
2022-09-04T00:15:18.952Z,98624.44
2022-09-04T00:17:33.839Z,98637.25
2022-09-04T00:19:48.147Z,98635.91
2022-09-04T00:21:58.589Z,98635.41
2022-09-04T00:24:05.225Z,98636.03
2022-09-04T00:26:12.905Z,98635.53
2022-09-04T00:28:27.377Z,98638.63
2022-09-04T00:30:29.175Z,98641.66
2022-09-04T00:32:51.906Z,98637.91
2022-09-04T00:35:17.572Z,98642.31
2022-09-04T00:37:23.218Z,98639.34
2022-09-04T00:39:41.381Z,98642.44
2022-09-04T00:42:09.900Z,98644.66
2022-09-04T00:44:35.371Z,98644.16
2022-09-04T00:46:44.573Z,98638.63
2022-09-04T00:49:14.414Z,98653.06
2022-09-04T00:51:19.565Z,98644.25
2022-09-04T00:53:51.175Z,98640.16
2022-09-04T00:56:15.435Z,98644.06
2022-09-04T00:58:52.684Z,98648.28
2022-09-04T01:01:02.256Z,98649.72
2022-09-04T01:03:35.379Z,98664.97
2022-09-04T01:06:37.745Z,98668.34
2022-09-04T01:09:24.949Z,98659.56
2022-09-04T01:11:33.253Z,98660.16
2022-09-04T01:13:42.293Z,98661.28
2022-09-04T01:15:59.424Z,98658.00
2022-09-04T01:18:30.788Z,98658.00
2022-09-04T01:20:51.108Z,98661.59
2022-09-04T01:23:13.013Z,98658.31
2022-09-04T01:25:20.840Z,98663.03
2022-09-04T01:27:39.726Z,98666.63
2022-09-04T01:30:05.826Z,98667.72
2022-09-04T01:32:26.041Z,98661.38
2022-09-04T01:35:05.576Z,98663.31
2022-09-04T01:37:30.662Z,98664.97
2022-09-04T01:39:36.527Z,98666.63
2022-09-04T01:41:49.074Z,98665.47
2022-09-04T01:43:52.028Z,98672.34
2022-09-04T01:46:05.058Z,98671.50
2022-09-04T01:48:08.253Z,98663.22
2022-09-04T01:50:27.891Z,98652.78
2022-09-04T01:52:59.128Z,98672.75
2022-09-04T01:55:47.640Z,98665.91
2022-09-04T01:58:00.601Z,98672.25
2022-09-04T02:00:13.768Z,98682.50
2022-09-04T02:02:34.518Z,98677.56
2022-09-04T02:04:59.762Z,98676.75
2022-09-04T02:07:29.152Z,98677.56
2022-09-04T02:09:44.534Z,98682.28
2022-09-04T02:11:57.171Z,98678.06
2022-09-04T02:14:22.301Z,98680.31
2022-09-04T02:16:33.679Z,98680.84
2022-09-04T02:18:50.361Z,98680.53
2022-09-04T02:21:08.051Z,98676.97
2022-09-04T02:23:22.005Z,98677.78
2022-09-04T02:25:48.025Z,98679.72
2022-09-04T02:27:56.221Z,98673.88
2022-09-04T02:30:15.896Z,98680.22
2022-09-04T02:32:27.150Z,98684.94
2022-09-04T02:34:53.764Z,98679.13
2022-09-04T02:37:19.583Z,98684.66
2022-09-04T02:39:32.598Z,98690.69
2022-09-04T02:41:58.182Z,98682.38
2022-09-04T02:44:18.709Z,98688.44
2022-09-04T02:46:43.285Z,98691.19
2022-09-04T02:48:47.935Z,98693.63
2022-09-04T02:51:13.975Z,98689.25
2022-09-04T02:53:40.108Z,98692.84
2022-09-04T02:56:19.111Z,98702.75
2022-09-04T02:58:52.827Z,98700.00
2022-09-04T03:01:30.929Z,98700.81
2022-09-04T03:04:21.250Z,98701.66
2022-09-04T03:06:52.265Z,98700.00
2022-09-04T03:09:06.242Z,98702.47
2022-09-04T03:11:19.314Z,98715.47
2022-09-04T03:13:32.353Z,98711.56
2022-09-04T03:15:56.666Z,98719.06
2022-09-04T03:18:16.817Z,98708.81
2022-09-04T03:20:25.244Z,98714.88
2022-09-04T03:22:36.334Z,98708.19
2022-09-04T03:24:49.963Z,98704.59
2022-09-04T03:26:59.909Z,98712.63
2022-09-04T03:29:25.275Z,98707.09
2022-09-04T03:31:51.619Z,98702.66
2022-09-04T03:34:12.166Z,98700.72
2022-09-04T03:36:34.755Z,98707.59
2022-09-04T03:39:04.556Z,98705.66
2022-09-04T03:41:18.144Z,98706.47
2022-09-04T03:43:31.887Z,98712.00
2022-09-04T03:46:07.445Z,98709.25
2022-09-04T03:48:30.079Z,98714.78
2022-09-04T03:51:10.092Z,98720.09
2022-09-04T03:53:36.424Z,98720.09
2022-09-04T03:56:15.234Z,98719.25
2022-09-04T03:58:43.696Z,98733.09
2022-09-04T04:01:06.482Z,98727.56
2022-09-04T04:03:55.899Z,98734.22
2022-09-04T04:06:16.939Z,98730.66
2022-09-04T04:08:46.662Z,98732.06
2022-09-04T04:11:24.188Z,98728.69
2022-09-04T04:13:47.093Z,98745.28
2022-09-04T04:16:00.132Z,98748.84
2022-09-04T04:18:17.048Z,98749.69
2022-09-04T04:20:36.692Z,98745.28
2022-09-04T04:22:56.522Z,98744.75
2022-09-04T04:25:25.342Z,98746.41
2022-09-04T04:27:46.182Z,98746.41
2022-09-04T04:30:05.170Z,98748.66
2022-09-04T04:32:20.762Z,98753.06
2022-09-04T04:34:34.652Z,98755.81
2022-09-04T04:36:48.412Z,98753.06
2022-09-04T04:39:07.726Z,98759.72
2022-09-04T04:42:05.596Z,98768.63
2022-09-04T04:44:16.233Z,98770.06
2022-09-04T04:46:55.481Z,98780.28
2022-09-04T04:49:28.531Z,98775.38
2022-09-04T04:51:47.073Z,98776.19
2022-09-04T04:54:28.710Z,98775.69
2022-09-04T04:57:09.047Z,98775.47
2022-09-04T04:59:31.100Z,98779.88
2022-09-04T05:01:50.787Z,98789.81
2022-09-04T05:04:34.098Z,98789.28
2022-09-04T05:06:47.744Z,98793.47
2022-09-04T05:09:09.208Z,98796.56
2022-09-04T05:11:26.602Z,98798.81
2022-09-04T05:13:53.681Z,98803.00
2022-09-04T05:16:18.108Z,98801.91
2022-09-04T05:18:42.734Z,98815.53
2022-09-04T05:20:53.954Z,98818.59
2022-09-04T05:23:13.731Z,98810.88
2022-09-04T05:25:47.260Z,98814.28
2022-09-04T05:28:25.405Z,98821.50
2022-09-04T05:30:38.087Z,98831.22
2022-09-04T05:32:53.697Z,98833.47
2022-09-04T05:35:15.650Z,98842.06
2022-09-04T05:37:27.771Z,98843.50
2022-09-04T05:39:41.450Z,98846.25
2022-09-04T05:42:06.789Z,98841.84
2022-09-04T05:44:22.378Z,98852.06
2022-09-04T05:46:36.174Z,98849.63
2022-09-04T05:49:18.006Z,98846.03
2022-09-04T05:51:46.984Z,98850.72
2022-09-04T05:54:14.440Z,98852.66
2022-09-04T05:56:47.287Z,98857.91
2022-09-04T05:59:01.347Z,98857.91
2022-09-04T06:01:23.610Z,98861.50
2022-09-04T06:03:44.374Z,98857.31
2022-09-04T06:06:07.573Z,98863.63
2022-09-04T06:08:43.311Z,98861.44
2022-09-04T06:10:50.001Z,98860.81
2022-09-04T06:13:29.061Z,98864.63
2022-09-04T06:15:44.250Z,98867.81
2022-09-04T06:18:03.828Z,98878.75
2022-09-04T06:20:16.354Z,98878.81
2022-09-04T06:22:48.593Z,98879.91
2022-09-04T06:25:15.634Z,98878.72
2022-09-04T06:27:51.462Z,98871.19
2022-09-04T06:30:09.373Z,98875.25
2022-09-04T06:32:34.328Z,98865.19
2022-09-04T06:35:00.801Z,98874.22
2022-09-04T06:37:09.330Z,98880.47
2022-09-04T06:39:26.066Z,98885.88
2022-09-04T06:41:46.998Z,98880.53
2022-09-04T06:44:13.438Z,98882.31
2022-09-04T06:46:24.973Z,98882.94
2022-09-04T06:48:42.134Z,98889.78
2022-09-04T06:50:56.805Z,98884.97
2022-09-04T06:53:21.497Z,98888.19
2022-09-04T06:55:30.851Z,98895.13
2022-09-04T06:57:46.783Z,98897.31
2022-09-04T07:00:10.110Z,98896.69
2022-09-04T07:02:33.377Z,98897.56
2022-09-04T07:04:44.629Z,98901.38
2022-09-04T07:07:18.606Z,98910.59
2022-09-04T07:09:27.793Z,98912.44
2022-09-04T07:11:44.597Z,98906.22
2022-09-04T07:13:56.190Z,98916.75
2022-09-04T07:15:57.676Z,98917.56
2022-09-04T07:18:26.486Z,98923.66
2022-09-04T07:20:56.343Z,98921.41
2022-09-04T07:23:32.203Z,98923.53
2022-09-04T07:25:43.948Z,98923.22
2022-09-04T07:27:55.753Z,98919.31
2022-09-04T07:30:05.175Z,98920.09
2022-09-04T07:32:22.920Z,98928.47
2022-09-04T07:34:46.801Z,98932.06
2022-09-04T07:36:55.698Z,98934.50
2022-09-04T07:39:11.835Z,98938.94
2022-09-04T07:41:25.659Z,98934.66
2022-09-04T07:43:42.600Z,98938.69
2022-09-04T07:45:57.841Z,98946.06
2022-09-04T07:48:16.959Z,98939.44
2022-09-04T07:50:22.259Z,98939.09
2022-09-04T07:52:44.638Z,98942.00
2022-09-04T07:55:07.345Z,98942.59
2022-09-04T07:57:26.410Z,98948.28
2022-09-04T07:59:47.256Z,98949.88
2022-09-04T08:02:04.131Z,98943.41
2022-09-04T08:04:11.610Z,98947.31
2022-09-04T08:06:35.597Z,98949.06
2022-09-04T08:08:46.248Z,98953.16
2022-09-04T08:11:14.535Z,98962.19
2022-09-04T08:13:27.675Z,98966.91
2022-09-04T08:15:46.156Z,98964.72
2022-09-04T08:18:12.855Z,98963.72
2022-09-04T08:20:45.264Z,98964.66
2022-09-04T08:23:02.087Z,98967.13
2022-09-04T08:25:16.983Z,98970.38
2022-09-04T08:27:57.015Z,98962.28
2022-09-04T08:30:06.326Z,98969.91
2022-09-04T08:32:16.577Z,98977.88
2022-09-04T08:34:57.779Z,98968.28
2022-09-04T08:37:20.913Z,98971.59
2022-09-04T08:39:34.642Z,98966.03
2022-09-04T08:41:51.553Z,98961.19
2022-09-04T08:44:28.717Z,98962.84
2022-09-04T08:46:52.899Z,98959.41
2022-09-04T08:49:11.746Z,98961.16
2022-09-04T08:51:47.470Z,98964.09
2022-09-04T08:54:19.175Z,98959.44
2022-09-04T08:56:56.737Z,98967.59
2022-09-04T08:59:29.390Z,98958.56
2022-09-04T09:01:51.412Z,98968.34
2022-09-04T09:04:43.984Z,98960.44
2022-09-04T09:07:13.685Z,98973.84
2022-09-04T09:09:21.163Z,98971.09
2022-09-04T09:11:41.496Z,98967.53
2022-09-04T09:14:07.412Z,98976.78
2022-09-04T09:16:42.947Z,98974.84
2022-09-04T09:19:06.296Z,98975.66
2022-09-04T09:21:31.118Z,98959.25
2022-09-04T09:23:54.961Z,98960.06
2022-09-04T09:26:20.184Z,98960.06
2022-09-04T09:28:58.830Z,98973.69
2022-09-04T09:31:28.801Z,98972.47
2022-09-04T09:33:49.571Z,98966.03
2022-09-04T09:36:21.657Z,98969.13
2022-09-04T09:38:41.754Z,98963.81
2022-09-04T09:40:56.084Z,98960.00
2022-09-04T09:43:20.750Z,98963.50
2022-09-04T09:45:46.092Z,98967.41
2022-09-04T09:48:15.949Z,98970.50
2022-09-04T09:50:27.927Z,98967.53
2022-09-04T09:53:07.027Z,98971.81
2022-09-04T09:55:29.265Z,98971.25
2022-09-04T09:57:46.881Z,98957.78
2022-09-04T10:00:10.594Z,98962.38
2022-09-04T10:02:38.196Z,98964.56
2022-09-04T10:05:11.138Z,98958.34
2022-09-04T10:07:19.763Z,98957.28
2022-09-04T10:09:27.955Z,98959.06
2022-09-04T10:11:36.703Z,98955.59
2022-09-04T10:14:08.188Z,98958.13
2022-09-04T10:16:24.126Z,98957.09
2022-09-04T10:18:37.785Z,98961.28
2022-09-04T10:21:20.890Z,98957.38
2022-09-04T10:23:47.273Z,98948.66
2022-09-04T10:26:09.926Z,98954.41
2022-09-04T10:28:51.031Z,98954.13
2022-09-04T10:31:02.625Z,98949.81
2022-09-04T10:33:34.019Z,98941.38
2022-09-04T10:35:54.622Z,98952.81
2022-09-04T10:38:15.887Z,98945.63
2022-09-04T10:40:43.379Z,98944.09
2022-09-04T10:43:13.979Z,98946.19
2022-09-04T10:45:35.872Z,98945.41
2022-09-04T10:48:02.232Z,98945.47
2022-09-04T10:50:31.078Z,98935.88
2022-09-04T10:53:02.778Z,98942.75
2022-09-04T10:55:22.837Z,98937.94
2022-09-04T10:57:59.841Z,98935.59
2022-09-04T11:00:01.588Z,98942.50
2022-09-04T11:02:41.112Z,98938.53
2022-09-04T11:05:20.385Z,98931.25
2022-09-04T11:07:29.890Z,98926.06
2022-09-04T11:09:53.175Z,98925.28
2022-09-04T11:12:46.482Z,98933.38
2022-09-04T11:15:09.392Z,98933.41
2022-09-04T11:17:52.981Z,98935.47
2022-09-04T11:20:34.042Z,98927.38
2022-09-04T11:22:47.755Z,98930.25
2022-09-04T11:25:10.851Z,98927.81
2022-09-04T11:28:10.659Z,98923.81
2022-09-04T11:30:31.824Z,98926.25
2022-09-04T11:32:39.461Z,98917.34
2022-09-04T11:35:28.578Z,98916.13
2022-09-04T11:37:45.273Z,98916.16
2022-09-04T11:39:52.735Z,98916.56
2022-09-04T11:42:20.430Z,98921.41
2022-09-04T11:44:37.322Z,98919.00
2022-09-04T11:47:16.990Z,98919.81
2022-09-04T11:49:49.582Z,98920.59
2022-09-04T11:52:14.882Z,98922.66
2022-09-04T11:54:29.209Z,98920.22
2022-09-04T11:56:50.869Z,98917.41
2022-09-04T11:59:04.999Z,98915.78
2022-09-04T12:01:18.600Z,98920.66
2022-09-04T12:03:49.575Z,98919.03
2022-09-04T12:06:15.364Z,98927.53
2022-09-04T12:08:25.774Z,98927.91
2022-09-04T12:10:52.460Z,98922.66
2022-09-04T12:13:14.558Z,98932.78
2022-09-04T12:15:46.734Z,98925.91
2022-09-04T12:18:08.635Z,98929.13
2022-09-04T12:20:28.415Z,98930.34
2022-09-04T12:23:04.550Z,98929.53
2022-09-04T12:25:43.793Z,98926.28
2022-09-04T12:28:01.301Z,98930.78
2022-09-04T12:30:14.392Z,98929.16
2022-09-04T12:32:37.862Z,98928.31
2022-09-04T12:34:56.516Z,98931.16
2022-09-04T12:37:22.133Z,98931.16
2022-09-04T12:39:43.033Z,98928.75
2022-09-04T12:42:11.055Z,98923.88
2022-09-04T12:44:38.049Z,98928.75
2022-09-04T12:46:55.853Z,98927.91
2022-09-04T12:49:28.672Z,98922.25
2022-09-04T12:52:00.426Z,98927.94
2022-09-04T12:54:45.355Z,98931.97
2022-09-04T12:56:57.149Z,98929.97
2022-09-04T12:59:32.527Z,98929.16
2022-09-04T13:02:16.863Z,98930.72
2022-09-04T13:04:31.595Z,98929.09
2022-09-04T13:07:15.971Z,98934.00
2022-09-04T13:09:35.154Z,98924.66
2022-09-04T13:12:13.746Z,98932.78
2022-09-04T13:14:49.533Z,98926.28
2022-09-04T13:17:06.301Z,98927.09
2022-09-04T13:19:50.710Z,98935.22
2022-09-04T13:22:08.851Z,98925.50
2022-09-04T13:24:36.457Z,98930.34
2022-09-04T13:26:55.325Z,98928.31
2022-09-04T13:29:16.994Z,98921.88
2022-09-04T13:31:33.545Z,98919.44
2022-09-04T13:34:04.320Z,98924.28
2022-09-04T13:36:16.595Z,98926.72
2022-09-04T13:38:36.072Z,98923.47
2022-09-04T13:41:38.671Z,98928.75
2022-09-04T13:44:18.645Z,98928.72
2022-09-04T13:46:35.588Z,98927.50
2022-09-04T13:48:52.065Z,98924.69
2022-09-04T13:51:01.818Z,98936.84
2022-09-04T13:53:34.719Z,98929.94
2022-09-04T13:55:55.550Z,98922.25
2022-09-04T13:58:21.367Z,98929.53
2022-09-04T14:00:28.611Z,98927.53
2022-09-04T14:02:35.072Z,98922.22
2022-09-04T14:04:52.800Z,98927.06
2022-09-04T14:07:10.823Z,98921.00
2022-09-04T14:09:15.300Z,98924.63
2022-09-04T14:11:25.508Z,98929.09
2022-09-04T14:13:44.754Z,98929.88
2022-09-04T14:16:06.812Z,98933.91
2022-09-04T14:18:29.087Z,98931.88
2022-09-04T14:21:01.363Z,98932.66
2022-09-04T14:23:12.528Z,98930.63
2022-09-04T14:25:15.862Z,98931.00
2022-09-04T14:27:31.580Z,98933.84
2022-09-04T14:30:06.123Z,98927.75
2022-09-04T14:32:20.398Z,98930.53
2022-09-04T14:34:35.889Z,98926.06
2022-09-04T14:36:40.132Z,98932.53
2022-09-04T14:39:06.649Z,98929.22
2022-09-04T14:41:34.068Z,98932.41
2022-09-04T14:44:07.542Z,98925.91
2022-09-04T14:46:31.794Z,98928.72
2022-09-04T14:48:40.707Z,98933.56
2022-09-04T14:50:52.092Z,98933.94
2022-09-04T14:53:06.519Z,98932.28
2022-09-04T14:55:16.261Z,98927.84
2022-09-04T14:57:29.164Z,98920.91
2022-09-04T14:59:45.169Z,98918.84
2022-09-04T15:02:02.946Z,98924.88
2022-09-04T15:04:18.906Z,98930.47
2022-09-04T15:06:30.231Z,98929.63
2022-09-04T15:08:40.535Z,98932.00
2022-09-04T15:10:53.759Z,98932.38
2022-09-04T15:13:30.579Z,98931.91
2022-09-04T15:15:39.604Z,98933.06
2022-09-04T15:17:54.699Z,98928.56
2022-09-04T15:19:59.879Z,98939.03
2022-09-04T15:22:26.989Z,98936.09
2022-09-04T15:24:43.750Z,98934.88
2022-09-04T15:26:55.797Z,98936.81
2022-09-04T15:29:27.401Z,98939.56
2022-09-04T15:31:33.680Z,98936.66
2022-09-04T15:33:42.778Z,98942.22
2022-09-04T15:35:56.683Z,98946.22
2022-09-04T15:38:30.374Z,98947.72
2022-09-04T15:40:38.495Z,98942.41
2022-09-04T15:42:49.969Z,98936.69
2022-09-04T15:44:51.812Z,98931.75
2022-09-04T15:47:23.247Z,98932.88
2022-09-04T15:49:53.743Z,98938.84
2022-09-04T15:52:03.288Z,98940.28
2022-09-04T15:54:10.949Z,98928.91
2022-09-04T15:56:25.185Z,98928.81
2022-09-04T15:58:33.573Z,98938.78
2022-09-04T16:01:00.065Z,98935.06
2022-09-04T16:03:22.307Z,98932.47
2022-09-04T16:05:36.036Z,98932.00
2022-09-04T16:07:46.571Z,98933.91
2022-09-04T16:10:01.190Z,98944.22
2022-09-04T16:12:20.690Z,98936.81
2022-09-04T16:14:45.250Z,98934.31
2022-09-04T16:16:53.052Z,98938.94
2022-09-04T16:19:05.058Z,98935.66
2022-09-04T16:21:21.290Z,98940.72
2022-09-04T16:23:38.328Z,98934.50
2022-09-04T16:25:51.718Z,98933.59
2022-09-04T16:28:03.926Z,98932.69
2022-09-04T16:30:09.090Z,98928.94
2022-09-04T16:32:18.333Z,98928.88
2022-09-04T16:34:39.659Z,98942.81
2022-09-04T16:36:46.108Z,98932.31
2022-09-04T16:39:00.573Z,98934.22
2022-09-04T16:41:11.859Z,98940.25
2022-09-04T16:43:33.076Z,98939.44
2022-09-04T16:46:10.121Z,98939.31
2022-09-04T16:48:34.617Z,98936.06
2022-09-04T16:50:51.899Z,98940.44
2022-09-04T16:53:12.634Z,98941.50
2022-09-04T16:55:27.152Z,98938.25
2022-09-04T16:57:54.619Z,98936.94
2022-09-04T17:00:09.579Z,98936.84
2022-09-04T17:02:24.120Z,98937.59
2022-09-04T17:05:03.957Z,98939.88
2022-09-04T17:07:08.865Z,98938.19
2022-09-04T17:09:42.248Z,98943.38
2022-09-04T17:11:55.328Z,98944.84
2022-09-04T17:14:15.315Z,98935.97
2022-09-04T17:16:22.313Z,98939.91
2022-09-04T17:18:28.353Z,98945.81
2022-09-04T17:21:17.514Z,98938.84
2022-09-04T17:28:59.006Z,98949.91
2022-09-04T17:29:09.208Z,98944.22
2022-09-04T17:29:09.931Z,98944.94
2022-09-04T17:30:46.981Z,98944.78
2022-09-04T17:38:51.035Z,98946.25
2022-09-04T17:40:46.472Z,98944.47
2022-09-04T17:40:48.436Z,98953.06
2022-09-04T17:41:39.957Z,98953.84
2022-09-04T17:44:03.532Z,98945.97
2022-09-04T17:46:20.798Z,98946.69
2022-09-04T17:48:37.900Z,98947.38
2022-09-04T17:50:52.495Z,98951.19
2022-09-04T17:53:08.150Z,98959.44
2022-09-04T17:55:16.673Z,98956.09
2022-09-04T17:57:53.491Z,98959.88
2022-09-04T18:00:06.750Z,98965.44
2022-09-04T18:02:28.665Z,98970.38
2022-09-04T18:04:34.904Z,98971.84
2022-09-04T18:06:45.491Z,98972.56
2022-09-04T18:08:57.294Z,98972.81
2022-09-04T18:11:08.042Z,98977.03
2022-09-04T18:13:41.867Z,98984.44
2022-09-04T18:16:18.638Z,98981.81
2022-09-04T18:18:43.868Z,98985.59
2022-09-04T18:21:26.867Z,98986.53
2022-09-04T18:23:51.516Z,98985.91
2022-09-04T18:26:40.615Z,98977.25
2022-09-04T18:28:55.427Z,98985.47
2022-09-04T18:37:06.172Z,98992.00
2022-09-04T18:37:15.980Z,98996.59
2022-09-04T18:37:25.656Z,98994.13
2022-09-04T18:38:51.922Z,98995.56
2022-09-04T18:43:34.598Z,98996.88
2022-09-04T18:50:25.371Z,98999.78
2022-09-04T18:50:32.731Z,99001.66
2022-09-04T18:50:50.179Z,99010.31
2022-09-04T18:51:38.453Z,99009.81
2022-09-04T18:53:50.107Z,99017.28
2022-09-04T18:56:06.206Z,99019.84
2022-09-04T18:58:23.691Z,99018.41
2022-09-04T19:00:48.641Z,99022.63
2022-09-04T19:03:04.640Z,99028.78
2022-09-04T19:05:14.070Z,99036.13
2022-09-04T19:07:29.992Z,99029.44
2022-09-04T19:09:55.662Z,99028.03
2022-09-04T19:12:08.591Z,99026.97
2022-09-04T19:14:15.515Z,99022.72
2022-09-04T19:16:31.782Z,99026.91
2022-09-04T19:21:14.373Z,99038.03
2022-09-04T19:23:32.485Z,99038.94
2022-09-04T19:25:40.463Z,99042.75
2022-09-04T19:28:06.845Z,99036.56
2022-09-04T19:30:25.274Z,99034.19
2022-09-04T19:32:39.743Z,99040.28
2022-09-04T19:34:47.344Z,99046.09
2022-09-04T19:36:59.100Z,99046.28
2022-09-04T19:45:54.732Z,99047.16
2022-09-04T19:45:59.170Z,99041.66
2022-09-04T19:46:16.320Z,99041.03
2022-09-04T19:47:31.400Z,99037.47
2022-09-04T19:52:23.711Z,99039.97
2022-09-04T19:53:31.034Z,99036.56
2022-09-04T19:54:44.796Z,99042.69
2022-09-04T19:57:33.315Z,99047.97
2022-09-04T19:59:45.538Z,99036.81
2022-09-04T20:01:52.146Z,99040.94
2022-09-04T20:04:12.529Z,99043.91
2022-09-04T20:06:21.470Z,99045.28
2022-09-04T20:08:31.171Z,99042.69
2022-09-04T20:10:45.363Z,99054.34
2022-09-04T20:12:53.466Z,99052.25
2022-09-04T20:15:12.655Z,99049.47
2022-09-04T20:17:39.053Z,99057.53
2022-09-04T20:19:51.596Z,99052.97
2022-09-04T20:22:05.643Z,99049.81
2022-09-04T20:24:15.971Z,99054.75
2022-09-04T20:26:30.968Z,99053.28
2022-09-04T20:28:54.640Z,99048.72
2022-09-04T20:31:35.505Z,99047.56
2022-09-04T20:33:40.701Z,99050.53
2022-09-04T20:35:59.921Z,99050.34
2022-09-04T20:38:23.317Z,99049.22
2022-09-04T20:40:35.205Z,99052.66
2022-09-04T20:42:44.530Z,99052.81
2022-09-04T20:52:37.614Z,99055.78
2022-09-04T20:52:45.422Z,99047.59
2022-09-04T20:52:49.564Z,99049.03
2022-09-04T20:53:05.371Z,99054.47
2022-09-04T20:54:56.708Z,99042.81
2022-09-04T21:00:53.365Z,99054.25
2022-09-04T21:03:13.906Z,99055.59
2022-09-04T21:03:17.385Z,99061.31
2022-09-04T21:05:02.044Z,99067.03
2022-09-04T21:07:33.200Z,99064.91
2022-09-04T21:10:09.567Z,99052.25
2022-09-04T21:12:42.615Z,99061.59
2022-09-04T21:14:50.924Z,99059.97
2022-09-04T21:17:33.858Z,99057.00
2022-09-04T21:19:58.677Z,99056.66
2022-09-04T21:22:32.670Z,99057.31
2022-09-04T21:24:40.915Z,99063.53
2022-09-04T21:27:00.312Z,99064.97
2022-09-04T21:29:32.146Z,99071.53
2022-09-04T21:32:11.293Z,99072.78
2022-09-04T21:34:44.478Z,99067.03
2022-09-04T21:36:59.482Z,99069.63
2022-09-04T21:39:28.672Z,99071.44
2022-09-04T21:41:45.512Z,99073.19
2022-09-04T21:44:21.567Z,99089.41
2022-09-04T21:46:35.606Z,99084.97
2022-09-04T21:48:57.414Z,99089.03
2022-09-04T21:51:28.387Z,99090.81
2022-09-04T21:53:55.172Z,99096.22
2022-09-04T22:00:16.096Z,99095.53
2022-09-04T22:02:42.627Z,99084.53
2022-09-04T22:02:44.603Z,99090.72
2022-09-04T22:04:44.433Z,99098.91
2022-09-04T22:13:04.504Z,99093.97
2022-09-04T22:13:31.879Z,99104.91
2022-09-04T22:13:40.088Z,99096.69
2022-09-04T22:15:02.772Z,99097.00
2022-09-04T22:17:14.980Z,99098.47
2022-09-04T22:19:19.176Z,99092.41
2022-09-04T22:21:44.302Z,99089.44
2022-09-04T22:24:00.868Z,99097.78
2022-09-04T22:26:24.641Z,99102.31
2022-09-04T22:28:52.063Z,99094.88
2022-09-04T22:31:29.198Z,99091.63
2022-09-04T22:34:15.650Z,99087.00
2022-09-04T22:36:40.735Z,99092.06
2022-09-04T22:38:53.609Z,99091.03
2022-09-04T22:41:24.659Z,99085.81
2022-09-04T22:43:28.636Z,99090.88
2022-09-04T22:46:03.213Z,99088.22
2022-09-04T22:48:35.627Z,99096.06
2022-09-04T22:50:54.516Z,99089.78
2022-09-04T22:53:18.933Z,99090.09
2022-09-04T22:56:23.497Z,99090.22
2022-09-04T22:58:50.825Z,99085.59
2022-09-04T23:01:18.518Z,99085.44
2022-09-04T23:03:49.841Z,99096.31
2022-09-04T23:12:37.589Z,99097.78
2022-09-04T23:13:42.211Z,99095.94
2022-09-04T23:13:47.725Z,99086.28
2022-09-04T23:15:08.813Z,99096.34
2022-09-04T23:17:42.024Z,99091.44
2022-09-04T23:26:30.969Z,99097.63
2022-09-04T23:26:47.716Z,99101.00
2022-09-04T23:26:54.236Z,99099.88
2022-09-04T23:28:08.719Z,99089.66
2022-09-04T23:30:31.408Z,99091.63
2022-09-04T23:33:10.364Z,99098.09
2022-09-04T23:35:24.804Z,99099.25
2022-09-04T23:38:20.852Z,99105.09
2022-09-04T23:40:53.563Z,99105.22
2022-09-04T23:43:13.783Z,99101.94
2022-09-04T23:45:27.332Z,99107.81
2022-09-04T23:47:47.823Z,99106.47
2022-09-04T23:50:02.053Z,99104.81
2022-09-04T23:52:48.727Z,99102.16
2022-09-04T23:55:07.901Z,99100.81
2022-09-04T23:57:26.520Z,99096.72
2022-09-04T23:59:47.911Z,99097.03
